createdAt,value
2022-10-11T00:01:00.022Z,7.25
2022-10-11T00:03:36.983Z,12.27
2022-10-11T00:06:20.125Z,10.50
2022-10-11T00:09:02.593Z,6.93
2022-10-11T00:11:45.696Z,6.82
2022-10-11T00:14:33.001Z,6.72
2022-10-11T00:17:14.309Z,6.97
2022-10-11T00:20:10.724Z,6.40
2022-10-11T00:22:51.539Z,7.00
2022-10-11T00:25:40.696Z,6.18
2022-10-11T00:28:27.360Z,6.60
2022-10-11T00:31:16.271Z,6.70
2022-10-11T00:33:56.610Z,6.72
2022-10-11T00:36:36.979Z,6.47
2022-10-11T00:39:23.732Z,6.38
2022-10-11T00:42:15.524Z,6.95
2022-10-11T00:45:22.680Z,7.10
2022-10-11T00:48:05.783Z,6.80
2022-10-11T00:51:00.287Z,6.50
2022-10-11T00:53:46.709Z,6.88
2022-10-11T00:56:32.376Z,8.00
2022-10-11T00:59:16.967Z,7.43
2022-10-11T01:02:02.487Z,7.18
2022-10-11T01:04:46.827Z,7.43
2022-10-11T01:07:32.357Z,7.68
2022-10-11T01:10:11.875Z,9.20
2022-10-11T01:13:21.607Z,7.47
2022-10-11T01:16:20.186Z,7.00
2022-10-11T01:22:21.693Z,7.63
2022-10-11T01:25:20.188Z,7.50
2022-10-11T01:28:35.396Z,7.70
2022-10-11T01:31:25.108Z,7.90
2022-10-11T01:34:06.023Z,7.95
2022-10-11T01:36:52.425Z,7.65
2022-10-11T01:40:04.778Z,8.07
2022-10-11T01:42:51.997Z,8.02
2022-10-11T01:45:32.057Z,7.13
2022-10-11T01:48:21.811Z,7.57
2022-10-11T01:51:07.514Z,7.82
2022-10-11T01:54:12.967Z,8.35
2022-10-11T01:57:13.632Z,8.30
2022-10-11T02:00:28.776Z,8.07
2022-10-11T02:03:22.579Z,8.65
2022-10-11T02:06:18.509Z,8.18
2022-10-11T02:09:38.088Z,8.13
2022-10-11T02:12:49.678Z,8.88
2022-10-11T02:15:39.342Z,8.07
2022-10-11T02:18:32.761Z,8.13
2022-10-11T02:21:32.666Z,8.80
2022-10-11T02:24:30.435Z,8.90
2022-10-11T02:27:10.912Z,9.02
2022-10-11T02:29:53.928Z,9.25
2022-10-11T02:32:39.258Z,10.93
2022-10-11T02:35:26.388Z,11.20
2022-10-11T02:38:25.165Z,9.60
2022-10-11T02:41:16.910Z,10.00
2022-10-11T02:44:10.794Z,9.82
2022-10-11T02:46:52.876Z,11.93
2022-10-11T02:49:35.511Z,9.27
2022-10-11T02:52:20.969Z,8.65
2022-10-11T02:55:01.870Z,9.68
2022-10-11T02:57:47.331Z,9.60
2022-10-11T03:00:36.647Z,11.00
2022-10-11T03:03:18.404Z,11.93
2022-10-11T03:06:05.209Z,12.25
2022-10-11T03:08:52.222Z,12.43
2022-10-11T03:11:41.466Z,10.80
2022-10-11T03:14:26.303Z,12.60
2022-10-11T03:20:16.172Z,14.52
2022-10-11T03:23:00.353Z,13.50
2022-10-11T03:25:47.956Z,14.35
2022-10-11T03:28:28.611Z,12.30
2022-10-11T03:31:09.988Z,12.48
2022-10-11T03:33:56.303Z,13.82
2022-10-11T03:36:37.633Z,14.80
2022-10-11T03:39:18.102Z,15.38
2022-10-11T03:42:09.408Z,13.82
2022-10-11T03:44:52.119Z,13.65
2022-10-11T03:47:40.988Z,13.63
2022-10-11T03:50:22.738Z,13.07
2022-10-11T03:53:04.420Z,13.45
2022-10-11T03:55:43.771Z,13.98
2022-10-11T03:58:23.819Z,16.00
2022-10-11T04:01:11.050Z,15.63
2022-10-11T04:03:58.444Z,15.50
2022-10-11T04:06:39.984Z,18.10
2022-10-11T04:09:22.765Z,18.45
2022-10-11T04:12:04.159Z,17.98
2022-10-11T04:14:44.858Z,15.73
2022-10-11T04:17:23.809Z,16.10
2022-10-11T04:20:10.271Z,14.18
2022-10-11T04:23:19.882Z,14.50
2022-10-11T04:26:00.757Z,14.38
2022-10-11T04:28:46.877Z,16.02
2022-10-11T04:31:31.388Z,15.73
2022-10-11T04:34:26.820Z,14.00
2022-10-11T04:37:08.741Z,13.68
2022-10-11T04:39:50.992Z,14.23
2022-10-11T04:42:35.165Z,15.45
2022-10-11T04:45:26.172Z,17.10
2022-10-11T04:48:20.126Z,16.73
2022-10-11T04:51:08.115Z,17.02
2022-10-11T04:54:09.046Z,23.17
2022-10-11T04:57:11.124Z,19.10
2022-10-11T04:59:56.521Z,15.95
2022-10-11T05:02:55.057Z,17.67
2022-10-11T05:05:35.885Z,17.38
2022-10-11T05:08:23.922Z,17.70
2022-10-11T05:11:10.163Z,17.13
2022-10-11T05:13:50.531Z,17.02
2022-10-11T05:19:41.218Z,17.50
2022-10-11T05:22:21.943Z,21.10
2022-10-11T05:25:04.131Z,20.85
2022-10-11T05:30:32.171Z,19.67
2022-10-11T05:33:15.061Z,17.27
2022-10-11T05:35:55.311Z,19.10
2022-10-11T05:38:39.264Z,22.17
2022-10-11T05:41:21.551Z,16.60
2022-10-11T05:44:10.371Z,16.50
2022-10-11T05:46:54.725Z,17.80
2022-10-11T05:49:44.897Z,28.25
2022-10-11T05:52:27.403Z,17.00
2022-10-11T05:55:10.211Z,16.65
2022-10-11T05:57:56.475Z,31.05
2022-10-11T06:00:39.519Z,20.77
2022-10-11T06:03:16.980Z,16.95
2022-10-11T06:06:08.790Z,19.55
2022-10-11T06:12:10.794Z,25.40
2022-10-11T06:15:24.400Z,14.07
2022-10-11T06:18:30.216Z,12.23
2022-10-11T06:21:10.824Z,12.70
2022-10-11T06:24:06.926Z,11.77
2022-10-11T06:26:50.072Z,10.20
2022-10-11T06:29:29.769Z,8.70
2022-10-11T06:32:27.468Z,6.93
2022-10-11T06:35:42.934Z,7.15
2022-10-11T06:38:45.158Z,7.35
2022-10-11T06:42:03.778Z,6.32
2022-10-11T06:45:08.332Z,5.88
2022-10-11T06:48:05.952Z,6.50
2022-10-11T07:00:23.138Z,13.30
2022-10-11T07:06:00.147Z,5.47
2022-10-11T07:09:04.046Z,5.57
2022-10-11T07:12:03.753Z,4.38
2022-10-11T07:15:08.190Z,4.78
2022-10-11T07:18:14.421Z,4.28
2022-10-11T07:21:13.883Z,4.35
2022-10-11T07:24:14.753Z,4.55
2022-10-11T07:27:23.146Z,3.58
2022-10-11T07:30:20.330Z,3.95
2022-10-11T07:33:23.927Z,3.45
2022-10-11T07:36:30.172Z,3.40
2022-10-11T07:39:38.365Z,3.42
2022-10-11T07:51:36.926Z,3.70
2022-10-11T08:00:30.971Z,2.55
2022-10-11T08:06:31.942Z,3.08
2022-10-11T08:12:50.708Z,2.72
2022-10-11T08:15:53.059Z,2.58
2022-10-11T08:18:51.003Z,3.50
2022-10-11T08:21:52.381Z,2.88
2022-10-11T08:24:49.913Z,3.42
2022-10-11T08:27:44.658Z,2.70
2022-10-11T08:33:37.955Z,3.53
2022-10-11T08:36:27.700Z,3.55
2022-10-11T08:39:35.738Z,2.30
2022-10-11T08:42:44.695Z,2.50
2022-10-11T08:45:39.395Z,2.13
2022-10-11T08:48:39.379Z,2.35
2022-10-11T08:57:27.913Z,4.25
2022-10-11T09:00:20.914Z,2.13
2022-10-11T09:17:13.374Z,3.05
2022-10-11T09:20:00.764Z,1.60
2022-10-11T09:22:53.903Z,1.80
2022-10-11T09:25:56.828Z,1.58
2022-10-11T09:29:04.250Z,1.35
2022-10-11T09:31:34.145Z,1.42
2022-10-11T09:34:18.235Z,2.55
2022-10-11T09:37:15.368Z,1.30
2022-10-11T09:40:10.135Z,1.70
2022-10-11T09:42:50.556Z,1.77
2022-10-11T09:45:22.261Z,1.85
2022-10-11T09:47:58.170Z,1.42
2022-10-11T09:50:30.958Z,2.85
2022-10-11T09:53:08.308Z,1.75
2022-10-11T09:56:06.761Z,14.18
2022-10-11T09:58:39.067Z,2.72
2022-10-11T10:01:14.996Z,10.35
2022-10-11T10:03:46.748Z,15.10
2022-10-11T10:06:46.232Z,2.15
2022-10-11T10:09:30.717Z,2.45
2022-10-11T10:12:14.164Z,2.35
2022-10-11T10:14:45.158Z,2.35
2022-10-11T10:17:28.751Z,2.30
2022-10-11T10:20:00.935Z,2.30
2022-10-11T10:22:36.563Z,1.98
2022-10-11T10:25:13.696Z,4.20
2022-10-11T10:27:59.470Z,2.40
2022-10-11T10:33:16.218Z,3.00
2022-10-11T10:36:08.513Z,2.75
2022-10-11T10:39:00.514Z,2.55
2022-10-11T10:41:37.224Z,1.80
2022-10-11T10:44:10.711Z,2.00
2022-10-11T10:47:03.343Z,2.50
2022-10-11T10:50:19.554Z,3.03
2022-10-11T10:53:27.535Z,3.08
2022-10-11T10:56:44.833Z,4.55
2022-10-11T10:59:48.760Z,4.88
2022-10-11T11:02:40.196Z,6.10
2022-10-11T11:05:18.444Z,1.80
2022-10-11T11:07:59.831Z,1.60
2022-10-11T11:14:11.572Z,1.60
2022-10-11T11:16:58.913Z,1.90
2022-10-11T11:20:05.648Z,9.77
2022-10-11T11:23:01.079Z,5.88
2022-10-11T11:25:42.608Z,2.40
2022-10-11T11:28:56.513Z,3.53
2022-10-11T11:32:13.255Z,2.47
2022-10-11T11:34:47.380Z,1.73
2022-10-11T11:37:24.149Z,4.90
2022-10-11T11:40:05.960Z,2.88
2022-10-11T11:42:52.059Z,2.53
2022-10-11T11:45:59.517Z,5.40
2022-10-11T11:48:30.418Z,2.28
2022-10-11T11:51:33.068Z,2.65
2022-10-11T11:54:33.193Z,2.88
2022-10-11T11:57:23.329Z,1.73
2022-10-11T12:00:02.185Z,1.80
2022-10-11T12:03:14.490Z,3.40
2022-10-11T12:06:14.273Z,1.63
2022-10-11T12:08:57.082Z,1.75
2022-10-11T12:11:38.764Z,1.67
2022-10-11T12:14:36.163Z,2.70
2022-10-11T12:17:09.344Z,2.63
2022-10-11T12:19:40.257Z,2.05
2022-10-11T12:22:37.817Z,1.88
2022-10-11T12:25:27.555Z,2.25
2022-10-11T12:28:01.072Z,7.28
2022-10-11T12:31:03.889Z,1.83
2022-10-11T12:33:37.485Z,7.50
2022-10-11T12:36:35.092Z,2.67
2022-10-11T12:39:22.064Z,1.70
2022-10-11T12:41:50.486Z,1.88
2022-10-11T12:44:18.920Z,1.60
2022-10-11T12:46:54.707Z,1.88
2022-10-11T12:50:10.859Z,1.83
2022-10-11T12:53:09.963Z,1.50
2022-10-11T12:55:53.428Z,1.75
2022-10-11T12:58:51.254Z,1.42
2022-10-11T13:01:23.453Z,2.08
2022-10-11T13:04:07.456Z,1.60
2022-10-11T13:09:46.614Z,1.90
2022-10-11T13:12:22.864Z,1.70
2022-10-11T13:15:08.597Z,1.67
2022-10-11T13:17:39.250Z,1.63
2022-10-11T13:20:21.710Z,1.92
2022-10-11T13:22:53.077Z,2.00
2022-10-11T13:25:28.944Z,1.88
2022-10-11T13:28:07.474Z,1.45
2022-10-11T13:30:45.268Z,1.65
2022-10-11T13:33:32.979Z,2.33
2022-10-11T13:36:19.303Z,1.38
2022-10-11T13:39:03.974Z,1.73
2022-10-11T13:41:35.242Z,3.50
2022-10-11T13:44:04.704Z,3.45
2022-10-11T13:46:38.722Z,10.48
2022-10-11T13:49:41.399Z,5.70
2022-10-11T13:52:18.825Z,2.28
2022-10-11T13:54:59.141Z,2.42
2022-10-11T13:57:38.443Z,2.92
2022-10-11T14:00:37.671Z,5.03
2022-10-11T14:03:16.226Z,1.80
2022-10-11T14:06:02.013Z,2.57
2022-10-11T14:08:44.281Z,2.50
2022-10-11T14:11:16.404Z,2.22
2022-10-11T14:13:51.708Z,2.50
2022-10-11T14:16:25.015Z,2.40
2022-10-11T14:19:15.763Z,3.70
2022-10-11T14:21:49.787Z,1.92
2022-10-11T14:24:23.237Z,3.33
2022-10-11T14:27:01.321Z,7.20
2022-10-11T14:29:32.955Z,2.22
2022-10-11T14:32:05.065Z,9.70
2022-10-11T14:34:42.715Z,7.15
2022-10-11T14:37:16.457Z,7.22
2022-10-11T14:39:53.873Z,7.72
2022-10-11T14:42:26.798Z,6.50
2022-10-11T14:44:56.708Z,10.80
2022-10-11T14:47:48.432Z,29.15
2022-10-11T14:50:26.644Z,12.32
2022-10-11T14:53:11.198Z,6.75
2022-10-11T14:55:42.476Z,3.22
2022-10-11T14:58:19.797Z,3.35
2022-10-11T15:00:53.894Z,3.00
2022-10-11T15:03:24.683Z,60.15
2022-10-11T15:05:56.391Z,19.83
2022-10-11T15:08:32.552Z,100.30
2022-10-11T15:11:11.751Z,11.50
2022-10-11T15:13:46.836Z,11.43
2022-10-11T15:18:57.751Z,8.50
2022-10-11T15:21:35.983Z,5.32
2022-10-11T15:24:08.840Z,15.98
2022-10-11T15:26:40.043Z,11.80
2022-10-11T15:29:22.000Z,13.27
2022-10-11T15:31:52.121Z,12.93
2022-10-11T15:34:21.930Z,13.45
2022-10-11T15:37:00.409Z,15.80
2022-10-11T15:40:00.025Z,19.55
2022-10-11T15:42:32.961Z,15.02
2022-10-11T15:45:01.984Z,19.00
2022-10-11T15:47:30.734Z,30.83
2022-10-11T15:50:08.197Z,32.58
2022-10-11T15:52:37.283Z,33.00
2022-10-11T15:55:08.220Z,31.70
2022-10-11T15:57:38.174Z,26.38
2022-10-11T16:00:11.144Z,30.67
2022-10-11T16:02:47.609Z,34.75
2022-10-11T16:05:21.223Z,39.83
2022-10-11T16:07:52.656Z,36.15
2022-10-11T16:10:32.972Z,40.10
2022-10-11T16:13:07.813Z,55.08
2022-10-11T16:15:41.085Z,65.97
2022-10-11T16:18:22.570Z,68.75
2022-10-11T16:21:00.571Z,59.22
2022-10-11T16:23:31.731Z,55.35
2022-10-11T16:26:05.745Z,47.90
2022-10-11T16:28:35.093Z,52.05
2022-10-11T16:31:39.454Z,56.17
2022-10-11T16:34:10.537Z,53.28
2022-10-11T16:36:45.863Z,55.10
2022-10-11T16:39:15.807Z,39.35
2022-10-11T16:41:51.925Z,25.50
2022-10-11T16:44:27.999Z,31.55
2022-10-11T16:46:59.881Z,65.30
2022-10-11T16:49:29.303Z,46.58
2022-10-11T16:52:07.123Z,39.22
2022-10-11T16:54:36.585Z,48.13
2022-10-11T16:57:06.114Z,25.90
2022-10-11T16:59:34.776Z,21.73
2022-10-11T17:02:10.071Z,20.27
2022-10-11T17:04:42.894Z,22.98
2022-10-11T17:07:22.315Z,34.92
2022-10-11T17:09:53.785Z,37.80
2022-10-11T17:12:26.222Z,23.60
2022-10-11T17:14:57.584Z,14.38
2022-10-11T17:17:28.816Z,11.73
2022-10-11T17:20:03.537Z,29.13
2022-10-11T17:22:36.033Z,33.65
2022-10-11T17:25:14.457Z,23.45
2022-10-11T17:27:53.984Z,24.23
2022-10-11T17:30:33.181Z,30.30
2022-10-11T17:33:09.338Z,48.72
2022-10-11T17:35:39.855Z,34.58
2022-10-11T17:38:11.696Z,48.55
2022-10-11T17:40:52.585Z,38.80
2022-10-11T17:43:34.207Z,22.90
2022-10-11T17:46:06.768Z,32.65
2022-10-11T17:48:37.035Z,43.28
2022-10-11T17:51:09.389Z,35.15
2022-10-11T17:53:45.486Z,32.55
2022-10-11T18:01:52.791Z,31.10
2022-10-11T18:04:30.311Z,33.70
2022-10-11T18:06:58.857Z,30.90
2022-10-11T18:09:33.960Z,24.83
2022-10-11T18:12:03.202Z,22.02
2022-10-11T18:14:37.659Z,21.50
2022-10-11T18:17:06.836Z,21.95
2022-10-11T18:19:36.789Z,21.25
2022-10-11T18:22:07.499Z,20.92
2022-10-11T18:24:48.688Z,19.77
2022-10-11T18:27:18.026Z,28.65
2022-10-11T18:29:52.874Z,43.65
2022-10-11T18:32:25.099Z,45.83
2022-10-11T18:35:04.619Z,29.02
2022-10-11T18:40:20.116Z,17.58
2022-10-11T18:42:54.864Z,22.35
2022-10-11T18:45:27.530Z,25.58
2022-10-11T18:48:04.996Z,35.63
2022-10-11T18:50:36.652Z,42.17
2022-10-11T18:53:22.404Z,38.25
2022-10-11T18:58:46.855Z,43.50
2022-10-11T19:01:19.680Z,37.47
2022-10-11T19:04:16.212Z,33.13
2022-10-11T19:06:52.116Z,32.90
2022-10-11T19:09:28.674Z,31.33
2022-10-11T19:11:58.965Z,34.20
2022-10-11T19:14:31.237Z,31.73
2022-10-11T19:17:00.891Z,32.92
2022-10-11T19:19:31.251Z,29.15
2022-10-11T19:22:03.497Z,27.60
2022-10-11T19:24:43.100Z,26.92
2022-10-11T19:27:19.081Z,25.13
2022-10-11T19:29:50.513Z,34.83
2022-10-11T19:32:24.167Z,33.17
2022-10-11T19:34:54.452Z,39.33
2022-10-11T19:37:31.874Z,36.63
2022-10-11T19:40:04.150Z,36.47
2022-10-11T19:42:53.838Z,32.20
2022-10-11T19:45:33.059Z,25.17
2022-10-11T19:48:16.442Z,33.55
2022-10-11T19:53:30.528Z,26.10
2022-10-11T19:56:04.028Z,25.38
2022-10-11T19:58:46.840Z,25.08
2022-10-11T20:01:18.910Z,21.60
2022-10-11T20:03:51.888Z,18.73
2022-10-11T20:06:22.622Z,16.75
2022-10-11T20:09:16.721Z,16.85
2022-10-11T20:11:54.054Z,18.23
2022-10-11T20:14:33.366Z,25.42
2022-10-11T20:19:49.833Z,45.40
2022-10-11T20:22:19.810Z,57.45
2022-10-11T20:24:48.279Z,78.72
2022-10-11T20:27:18.026Z,52.05
2022-10-11T20:29:52.733Z,128.07
2022-10-11T20:32:32.723Z,118.25
2022-10-11T20:35:03.123Z,109.28
2022-10-11T20:37:34.805Z,91.97
2022-10-11T20:40:08.241Z,59.55
2022-10-11T20:42:38.885Z,61.47
2022-10-11T20:45:16.016Z,154.65
2022-10-11T20:47:47.583Z,54.65
2022-10-11T20:50:20.829Z,45.28
2022-10-11T20:52:57.873Z,46.35
2022-10-11T20:55:28.085Z,47.28
2022-10-11T20:58:00.192Z,36.85
2022-10-11T21:00:32.644Z,39.05
2022-10-11T21:03:07.063Z,31.92
2022-10-11T21:05:43.528Z,32.35
2022-10-11T21:08:16.180Z,32.58
2022-10-11T21:10:57.796Z,32.53
2022-10-11T21:13:26.216Z,28.88
2022-10-11T21:15:56.690Z,23.02
2022-10-11T21:18:31.704Z,23.63
2022-10-11T21:21:08.936Z,21.42
2022-10-11T21:23:45.606Z,21.02
2022-10-11T21:26:18.430Z,19.08
2022-10-11T21:28:50.422Z,17.60
2022-10-11T21:31:33.538Z,17.88
2022-10-11T21:34:10.640Z,20.10
2022-10-11T21:37:16.230Z,20.92
2022-10-11T21:40:25.143Z,18.80
2022-10-11T21:43:23.283Z,14.90
2022-10-11T21:45:52.459Z,15.77
2022-10-11T21:48:23.218Z,15.13
2022-10-11T21:51:27.553Z,14.88
2022-10-11T21:53:58.077Z,21.35
2022-10-11T21:56:28.157Z,17.50
2022-10-11T21:59:01.995Z,15.32
2022-10-11T22:01:33.320Z,15.90
2022-10-11T22:04:13.980Z,24.00
2022-10-11T22:06:43.096Z,21.15
2022-10-11T22:09:14.569Z,23.50
2022-10-11T22:12:20.519Z,18.35
2022-10-11T22:14:52.092Z,14.20
2022-10-11T22:17:20.728Z,15.50
2022-10-11T22:19:57.528Z,31.10
2022-10-11T22:22:27.161Z,49.35
2022-10-11T22:24:57.483Z,22.35
2022-10-11T22:27:34.864Z,23.60
2022-10-11T22:30:43.442Z,18.95
2022-10-11T22:33:12.109Z,16.35
2022-10-11T22:39:10.746Z,19.55
2022-10-11T22:44:28.126Z,15.57
2022-10-11T22:46:59.327Z,16.48
2022-10-11T22:49:29.217Z,16.33
2022-10-11T22:51:58.211Z,13.70
2022-10-11T22:54:47.614Z,13.90
2022-10-11T22:57:26.714Z,12.25
2022-10-11T22:59:57.675Z,12.07
2022-10-11T23:02:32.858Z,13.80
2022-10-11T23:05:04.088Z,17.20
2022-10-11T23:07:38.130Z,13.02
2022-10-11T23:10:08.062Z,12.52
2022-10-11T23:12:39.101Z,11.65
2022-10-11T23:15:12.238Z,12.15
2022-10-11T23:17:42.552Z,35.17
2022-10-11T23:20:19.050Z,28.85
2022-10-11T23:22:52.491Z,17.90
2022-10-11T23:25:22.605Z,20.75
2022-10-11T23:27:51.669Z,21.80
2022-10-11T23:30:30.244Z,21.00
2022-10-11T23:33:05.673Z,20.65
2022-10-11T23:35:38.717Z,17.02
2022-10-11T23:38:08.453Z,13.43
2022-10-11T23:40:37.475Z,15.13
2022-10-11T23:43:08.877Z,15.18
2022-10-11T23:45:45.391Z,16.45
2022-10-11T23:48:15.304Z,14.48
2022-10-11T23:50:45.149Z,12.07
2022-10-11T23:53:19.252Z,14.75
2022-10-11T23:55:49.916Z,14.38
2022-10-11T23:58:18.836Z,12.00
